createdAt,value
2022-09-14T00:01:40.351Z,76.36
2022-09-14T00:04:14.856Z,76.28
2022-09-14T00:06:44.357Z,76.16
2022-09-14T00:09:21.865Z,76.32
2022-09-14T00:11:51.453Z,76.68
2022-09-14T00:14:20.343Z,76.98
2022-09-14T00:16:48.959Z,77.66
2022-09-14T00:19:23.039Z,77.55
2022-09-14T00:21:53.638Z,77.51
2022-09-14T00:24:23.180Z,77.41
2022-09-14T00:26:52.272Z,77.56
2022-09-14T00:29:20.959Z,77.20
2022-09-14T00:31:49.017Z,77.21
2022-09-14T00:34:18.286Z,77.13
2022-09-14T00:36:48.557Z,77.15
2022-09-14T00:39:18.679Z,77.24
2022-09-14T00:41:48.790Z,77.44
2022-09-14T00:44:16.660Z,77.29
2022-09-14T00:46:48.017Z,77.10
2022-09-14T00:49:22.330Z,76.88
2022-09-14T00:52:10.505Z,76.48
2022-09-14T00:54:52.364Z,76.62
2022-09-14T00:57:21.459Z,76.65
2022-09-14T00:59:51.477Z,76.33
2022-09-14T01:02:22.373Z,76.33
2022-09-14T01:04:51.930Z,76.35
2022-09-14T01:07:42.527Z,76.22
2022-09-14T01:10:13.767Z,75.98
2022-09-14T01:13:00.889Z,75.88
2022-09-14T01:15:39.510Z,76.28
2022-09-14T01:18:24.711Z,76.39
2022-09-14T01:21:04.291Z,76.66
2022-09-14T01:24:12.524Z,76.76
2022-09-14T01:26:55.460Z,76.91
2022-09-14T01:29:39.916Z,76.58
2022-09-14T01:32:31.636Z,76.65
2022-09-14T01:35:28.073Z,76.67
2022-09-14T01:38:08.616Z,76.81
2022-09-14T01:40:41.931Z,76.89
2022-09-14T01:43:15.949Z,76.58
2022-09-14T01:45:52.165Z,76.72
2022-09-14T01:48:53.457Z,76.84
2022-09-14T01:51:28.659Z,76.71
2022-09-14T01:54:06.810Z,77.11
2022-09-14T01:56:40.506Z,77.24
2022-09-14T01:59:18.227Z,76.84
2022-09-14T02:02:07.719Z,76.87
2022-09-14T02:04:46.406Z,76.96
2022-09-14T02:07:15.741Z,76.90
2022-09-14T02:09:44.183Z,77.00
2022-09-14T02:12:12.195Z,77.17
2022-09-14T02:14:40.228Z,77.22
2022-09-14T02:17:08.512Z,77.38
2022-09-14T02:19:47.943Z,77.55
2022-09-14T02:22:15.887Z,77.95
2022-09-14T02:24:44.082Z,77.78
2022-09-14T02:27:12.154Z,77.30
2022-09-14T02:29:40.087Z,77.46
2022-09-14T02:32:33.709Z,77.51
2022-09-14T02:35:15.205Z,77.66
2022-09-14T02:37:48.993Z,77.58
2022-09-14T02:40:38.054Z,77.49
2022-09-14T02:43:27.118Z,77.39
2022-09-14T02:46:26.710Z,77.37
2022-09-14T02:49:00.912Z,77.37
2022-09-14T02:51:38.331Z,77.40
2022-09-14T02:54:28.932Z,77.36
2022-09-14T02:57:01.103Z,77.48
2022-09-14T02:59:29.557Z,77.44
2022-09-14T03:02:00.787Z,77.50
2022-09-14T03:04:29.004Z,77.04
2022-09-14T03:06:57.074Z,76.42
2022-09-14T03:09:25.145Z,75.98
2022-09-14T03:11:53.115Z,75.92
2022-09-14T03:14:21.295Z,75.80
2022-09-14T03:16:49.262Z,75.76
2022-09-14T03:19:17.738Z,75.31
2022-09-14T03:21:45.712Z,75.05
2022-09-14T03:24:13.791Z,74.85
2022-09-14T03:26:41.791Z,74.91
2022-09-14T03:29:09.774Z,75.11
2022-09-14T03:31:37.973Z,75.22
2022-09-14T03:34:06.072Z,75.27
2022-09-14T03:36:34.037Z,75.54
2022-09-14T03:39:02.124Z,75.47
2022-09-14T03:41:30.284Z,75.42
2022-09-14T03:43:58.560Z,75.77
2022-09-14T03:46:26.798Z,75.61
2022-09-14T03:48:56.243Z,75.86
2022-09-14T03:51:24.169Z,75.95
2022-09-14T03:53:53.000Z,76.21
2022-09-14T03:56:22.936Z,76.25
2022-09-14T03:58:52.031Z,76.49
2022-09-14T04:01:22.470Z,76.94
2022-09-14T04:03:51.325Z,77.08
2022-09-14T04:06:20.098Z,76.46
2022-09-14T04:08:48.498Z,77.32
2022-09-14T04:11:20.539Z,77.57
2022-09-14T04:13:48.878Z,78.11
2022-09-14T04:16:19.212Z,78.17
2022-09-14T04:18:47.852Z,78.03
2022-09-14T04:21:18.892Z,78.18
2022-09-14T04:24:12.726Z,78.07
2022-09-14T04:26:35.206Z,78.51
2022-09-14T04:29:03.589Z,77.79
2022-09-14T04:31:32.718Z,77.55
2022-09-14T04:34:00.868Z,77.30
2022-09-14T04:36:31.322Z,77.08
2022-09-14T04:39:01.717Z,77.19
2022-09-14T04:41:31.934Z,77.12
2022-09-14T04:44:01.337Z,76.97
2022-09-14T04:46:32.445Z,76.96
2022-09-14T04:49:00.965Z,76.97
2022-09-14T04:51:31.280Z,76.80
2022-09-14T04:54:00.520Z,76.90
2022-09-14T04:56:33.468Z,76.90
2022-09-14T04:59:04.441Z,76.65
2022-09-14T05:01:41.638Z,76.66
2022-09-14T05:04:12.057Z,76.78
2022-09-14T05:06:41.665Z,76.53
2022-09-14T05:09:17.582Z,76.50
2022-09-14T05:11:46.274Z,76.70
2022-09-14T05:14:15.062Z,76.97
2022-09-14T05:16:44.640Z,76.90
2022-09-14T05:19:15.886Z,76.85
2022-09-14T05:21:45.009Z,76.68
2022-09-14T05:24:18.259Z,76.36
2022-09-14T05:26:47.506Z,76.59
2022-09-14T05:29:18.251Z,76.88
2022-09-14T05:31:46.820Z,76.93
2022-09-14T05:34:17.148Z,77.11
2022-09-14T05:36:45.428Z,77.20
2022-09-14T05:39:13.400Z,77.12
2022-09-14T05:41:41.875Z,77.07
2022-09-14T05:44:10.148Z,77.73
2022-09-14T05:46:38.316Z,77.93
2022-09-14T05:49:06.564Z,78.11
2022-09-14T05:51:34.986Z,77.71
2022-09-14T05:54:09.491Z,77.64
2022-09-14T05:56:37.913Z,78.10
2022-09-14T05:59:05.952Z,77.88
2022-09-14T06:01:34.192Z,77.85
2022-09-14T06:04:03.018Z,77.62
2022-09-14T06:06:32.630Z,77.82
2022-09-14T06:09:01.105Z,77.94
2022-09-14T06:11:33.419Z,77.82
2022-09-14T06:14:02.470Z,77.98
2022-09-14T06:16:30.954Z,78.10
2022-09-14T06:18:59.947Z,78.11
2022-09-14T06:21:33.270Z,78.13
2022-09-14T06:24:02.080Z,78.16
2022-09-14T06:26:31.234Z,77.87
2022-09-14T06:28:59.708Z,77.70
2022-09-14T06:31:27.884Z,77.45
2022-09-14T06:33:56.268Z,77.16
2022-09-14T06:36:26.875Z,76.79
2022-09-14T06:38:55.800Z,76.64
2022-09-14T06:41:29.264Z,76.41
2022-09-14T06:43:59.201Z,76.13
2022-09-14T06:46:32.394Z,75.71
2022-09-14T06:49:10.298Z,75.39
2022-09-14T06:51:41.027Z,74.52
2022-09-14T06:54:12.277Z,73.55
2022-09-14T06:56:42.098Z,73.36
2022-09-14T06:59:12.616Z,73.35
2022-09-14T07:01:41.716Z,72.87
2022-09-14T07:04:09.890Z,72.57
2022-09-14T07:06:49.769Z,72.29
2022-09-14T07:09:19.548Z,72.06
2022-09-14T07:11:48.130Z,71.82
2022-09-14T07:14:16.826Z,71.81
2022-09-14T07:16:44.886Z,71.04
2022-09-14T07:19:14.831Z,71.05
2022-09-14T07:21:45.347Z,71.21
2022-09-14T07:24:15.041Z,70.01
2022-09-14T07:26:43.634Z,69.87
2022-09-14T07:29:15.651Z,69.37
2022-09-14T07:31:48.273Z,68.58
2022-09-14T07:34:16.516Z,68.76
2022-09-14T07:36:45.543Z,67.29
2022-09-14T07:39:16.082Z,66.85
2022-09-14T07:41:44.959Z,67.22
2022-09-14T07:44:16.625Z,67.05
2022-09-14T07:46:46.742Z,66.78
2022-09-14T07:49:17.215Z,66.81
2022-09-14T07:51:46.024Z,66.46
2022-09-14T07:54:16.327Z,66.43
2022-09-14T07:56:45.679Z,65.71
2022-09-14T08:02:03.274Z,65.07
2022-09-14T08:04:31.397Z,64.95
2022-09-14T08:06:59.318Z,63.62
2022-09-14T08:09:27.861Z,64.19
2022-09-14T08:11:56.258Z,64.28
2022-09-14T08:14:25.427Z,63.87
2022-09-14T08:16:53.456Z,62.22
2022-09-14T08:19:21.613Z,63.25
2022-09-14T08:21:49.813Z,60.99
2022-09-14T08:24:21.716Z,60.32
2022-09-14T08:26:50.187Z,60.62
2022-09-14T08:29:19.685Z,60.58
2022-09-14T08:31:48.874Z,61.41
2022-09-14T08:34:17.989Z,60.34
2022-09-14T08:36:47.808Z,60.24
2022-09-14T08:39:17.101Z,60.44
2022-09-14T08:41:57.205Z,60.19
2022-09-14T08:44:28.093Z,59.51
2022-09-14T08:47:00.711Z,59.80
2022-09-14T08:49:46.765Z,58.47
2022-09-14T08:52:34.705Z,59.12
2022-09-14T08:55:14.860Z,58.27
2022-09-14T08:57:56.656Z,58.17
2022-09-14T09:00:40.095Z,57.75
2022-09-14T09:03:45.292Z,55.86
2022-09-14T09:06:24.255Z,55.21
2022-09-14T09:08:59.394Z,55.17
2022-09-14T09:11:35.864Z,54.42
2022-09-14T09:14:18.366Z,53.69
2022-09-14T09:16:51.535Z,53.30
2022-09-14T09:19:48.615Z,51.56
2022-09-14T09:22:22.518Z,50.53
2022-09-14T09:24:54.354Z,50.02
2022-09-14T09:27:25.509Z,52.36
2022-09-14T09:29:53.492Z,51.40
2022-09-14T09:32:24.950Z,48.62
2022-09-14T09:35:23.411Z,48.55
2022-09-14T09:37:56.568Z,47.29
2022-09-14T09:41:11.208Z,46.55
2022-09-14T09:44:00.493Z,46.95
2022-09-14T09:46:37.894Z,47.63
2022-09-14T09:49:39.831Z,44.49
2022-09-14T09:52:17.100Z,42.01
2022-09-14T09:54:53.812Z,43.05
2022-09-14T09:57:29.422Z,44.71
2022-09-14T10:00:20.638Z,42.54
2022-09-14T10:02:49.663Z,40.63
2022-09-14T10:05:29.162Z,41.70
2022-09-14T10:08:02.752Z,43.59
2022-09-14T10:10:39.341Z,40.41
2022-09-14T10:13:28.925Z,37.52
2022-09-14T10:16:17.626Z,39.14
2022-09-14T10:18:49.447Z,39.06
2022-09-14T10:21:21.792Z,38.68
2022-09-14T10:24:17.423Z,39.50
2022-09-14T10:26:45.498Z,40.38
2022-09-14T10:29:35.515Z,40.47
2022-09-14T10:32:17.945Z,40.43
2022-09-14T10:34:46.060Z,39.60
2022-09-14T10:37:30.006Z,37.29
2022-09-14T10:40:17.431Z,39.21
2022-09-14T10:43:09.369Z,38.20
2022-09-14T10:46:02.483Z,36.32
2022-09-14T10:48:43.829Z,36.56
2022-09-14T10:51:21.013Z,35.43
2022-09-14T10:53:55.005Z,34.65
2022-09-14T10:56:53.690Z,35.01
2022-09-14T10:59:31.835Z,35.17
2022-09-14T11:02:18.816Z,35.47
2022-09-14T11:05:36.554Z,35.90
2022-09-14T11:08:36.533Z,35.65
2022-09-14T11:11:28.402Z,36.47
2022-09-14T11:14:05.993Z,35.45
2022-09-14T11:16:55.065Z,34.99
2022-09-14T11:19:34.904Z,36.70
2022-09-14T11:22:02.989Z,36.54
2022-09-14T11:25:03.418Z,36.25
2022-09-14T11:27:39.471Z,36.53
2022-09-14T11:30:18.398Z,36.48
2022-09-14T11:33:04.630Z,35.88
2022-09-14T11:35:43.517Z,35.96
2022-09-14T11:38:20.496Z,36.49
2022-09-14T11:41:18.166Z,36.46
2022-09-14T11:44:09.145Z,36.47
2022-09-14T11:46:47.044Z,36.99
2022-09-14T11:49:34.534Z,37.30
2022-09-14T11:52:17.751Z,38.15
2022-09-14T11:54:47.041Z,38.79
2022-09-14T11:57:18.803Z,39.27
2022-09-14T11:59:59.456Z,39.43
2022-09-14T12:02:30.508Z,40.09
2022-09-14T12:05:04.822Z,40.78
2022-09-14T12:07:51.936Z,41.11
2022-09-14T12:10:21.333Z,41.17
2022-09-14T12:13:19.719Z,41.50
2022-09-14T12:15:47.834Z,41.60
2022-09-14T12:18:23.240Z,42.00
2022-09-14T12:21:02.054Z,41.72
2022-09-14T12:23:42.739Z,41.82
2022-09-14T12:26:10.800Z,41.48
2022-09-14T12:28:48.611Z,40.88
2022-09-14T12:31:36.182Z,41.25
2022-09-14T12:34:24.467Z,40.87
2022-09-14T12:36:52.541Z,41.07
2022-09-14T12:39:35.290Z,41.10
2022-09-14T12:42:25.454Z,40.86
2022-09-14T12:44:54.549Z,39.60
2022-09-14T12:47:25.371Z,40.08
2022-09-14T12:49:58.075Z,40.21
2022-09-14T12:52:53.166Z,39.96
2022-09-14T12:55:46.126Z,40.00
2022-09-14T12:58:48.887Z,38.88
2022-09-14T13:01:27.979Z,39.71
2022-09-14T13:03:58.362Z,39.33
2022-09-14T13:06:35.239Z,39.96
2022-09-14T13:09:08.930Z,40.11
2022-09-14T13:11:40.596Z,39.91
2022-09-14T13:14:18.120Z,40.31
2022-09-14T13:16:49.933Z,41.58
2022-09-14T13:19:24.972Z,40.90
2022-09-14T13:21:56.562Z,40.99
2022-09-14T13:24:43.467Z,41.89
2022-09-14T13:27:37.434Z,43.72
2022-09-14T13:30:11.445Z,42.54
2022-09-14T13:32:45.763Z,43.22
2022-09-14T13:35:43.738Z,44.33
2022-09-14T13:38:22.561Z,43.80
2022-09-14T13:40:54.016Z,44.48
2022-09-14T13:43:23.357Z,46.29
2022-09-14T13:45:52.358Z,46.44
2022-09-14T13:48:21.613Z,47.82
2022-09-14T13:50:51.532Z,49.42
2022-09-14T13:53:48.601Z,50.37
2022-09-14T13:56:16.678Z,51.73
2022-09-14T13:58:46.249Z,53.03
2022-09-14T14:01:28.338Z,53.33
2022-09-14T14:03:58.588Z,53.51
2022-09-14T14:06:32.163Z,54.32
2022-09-14T14:09:07.217Z,54.70
2022-09-14T14:11:41.329Z,55.23
2022-09-14T14:14:31.489Z,56.07
2022-09-14T14:17:30.367Z,56.86
2022-09-14T14:20:01.252Z,57.75
2022-09-14T14:22:33.414Z,57.66
2022-09-14T14:25:18.852Z,57.31
2022-09-14T14:27:48.407Z,56.04
2022-09-14T14:30:18.735Z,55.16
2022-09-14T14:32:52.655Z,56.19
2022-09-14T14:35:26.678Z,56.05
2022-09-14T14:37:55.235Z,56.27
2022-09-14T14:40:25.486Z,57.08
2022-09-14T14:42:55.100Z,57.27
2022-09-14T14:45:26.835Z,57.80
2022-09-14T14:47:56.119Z,57.53
2022-09-14T14:50:34.144Z,57.63
2022-09-14T14:53:03.916Z,58.22
2022-09-14T14:55:33.758Z,59.53
2022-09-14T14:58:05.101Z,59.33
2022-09-14T15:00:36.000Z,60.40
2022-09-14T15:03:04.778Z,61.20
2022-09-14T15:05:33.206Z,59.79
2022-09-14T15:08:01.482Z,59.89
2022-09-14T15:10:30.778Z,59.93
2022-09-14T15:12:58.851Z,60.52
2022-09-14T15:15:26.921Z,60.78
2022-09-14T15:17:55.205Z,61.48
2022-09-14T15:20:23.581Z,61.78
2022-09-14T15:22:52.248Z,60.68
2022-09-14T15:25:21.773Z,60.58
2022-09-14T15:27:49.863Z,61.27
2022-09-14T15:30:18.014Z,61.52
2022-09-14T15:32:46.086Z,61.65
2022-09-14T15:35:15.392Z,61.97
2022-09-14T15:37:44.072Z,62.63
2022-09-14T15:40:12.584Z,62.42
2022-09-14T15:42:40.734Z,62.56
2022-09-14T15:45:09.331Z,62.40
2022-09-14T15:47:37.281Z,61.74
2022-09-14T15:50:06.435Z,61.78
2022-09-14T15:52:36.717Z,62.03
2022-09-14T15:55:07.381Z,62.51
2022-09-14T15:57:36.434Z,62.84
2022-09-14T16:00:13.373Z,63.11
2022-09-14T16:02:42.201Z,63.41
2022-09-14T16:05:10.576Z,63.24
2022-09-14T16:07:38.552Z,63.02
2022-09-14T16:10:07.233Z,63.34
2022-09-14T16:12:35.201Z,63.26
2022-09-14T16:15:03.585Z,63.95
2022-09-14T16:17:31.513Z,63.69
2022-09-14T16:19:59.523Z,63.23
2022-09-14T16:22:27.612Z,63.41
2022-09-14T16:24:55.765Z,63.39
2022-09-14T16:27:24.303Z,63.04
2022-09-14T16:29:52.326Z,63.17
2022-09-14T16:32:20.289Z,63.23
2022-09-14T16:34:48.223Z,63.23
2022-09-14T16:37:16.346Z,63.62
2022-09-14T16:39:44.677Z,63.35
2022-09-14T16:42:12.884Z,63.34
2022-09-14T16:44:41.159Z,63.18
2022-09-14T16:47:09.241Z,63.10
2022-09-14T16:49:39.459Z,62.94
2022-09-14T16:52:07.628Z,62.96
2022-09-14T16:54:35.810Z,63.00
2022-09-14T16:57:04.292Z,63.29
2022-09-14T16:59:32.357Z,63.16
2022-09-14T17:02:00.558Z,63.44
2022-09-14T17:04:28.836Z,63.59
2022-09-14T17:06:57.013Z,63.37
2022-09-14T17:09:28.138Z,63.28
2022-09-14T17:11:57.765Z,63.78
2022-09-14T17:14:29.728Z,64.50
2022-09-14T17:16:59.307Z,65.18
2022-09-14T17:19:28.096Z,64.85
2022-09-14T17:21:56.677Z,64.94
2022-09-14T17:24:26.057Z,65.62
2022-09-14T17:26:54.095Z,65.91
2022-09-14T17:29:22.408Z,66.35
2022-09-14T17:31:50.856Z,66.63
2022-09-14T17:34:19.192Z,66.46
2022-09-14T17:36:47.564Z,66.31
2022-09-14T17:39:15.809Z,66.20
2022-09-14T17:41:44.441Z,66.47
2022-09-14T17:44:14.627Z,66.86
2022-09-14T17:46:52.906Z,67.01
2022-09-14T17:49:23.131Z,67.35
2022-09-14T17:51:52.140Z,67.67
2022-09-14T17:54:20.758Z,67.55
2022-09-14T17:56:49.816Z,67.84
2022-09-14T17:59:20.769Z,68.29
2022-09-14T18:01:49.995Z,68.24
2022-09-14T18:04:19.005Z,68.25
2022-09-14T18:06:49.495Z,68.77
2022-09-14T18:09:22.843Z,69.32
2022-09-14T18:11:54.651Z,69.41
2022-09-14T18:14:23.656Z,69.40
2022-09-14T18:16:51.737Z,69.37
2022-09-14T18:19:19.866Z,69.51
2022-09-14T18:21:52.210Z,68.90
2022-09-14T18:24:21.800Z,68.81
2022-09-14T18:26:50.479Z,68.48
2022-09-14T18:29:21.397Z,68.09
2022-09-14T18:31:51.293Z,68.00
2022-09-14T18:34:20.859Z,67.89
2022-09-14T18:36:51.972Z,67.85
2022-09-14T18:39:20.262Z,67.81
2022-09-14T18:41:51.395Z,67.60
2022-09-14T18:44:20.804Z,67.30
2022-09-14T18:46:51.240Z,67.36
2022-09-14T18:49:19.816Z,67.09
2022-09-14T18:51:47.882Z,66.99
2022-09-14T18:54:16.060Z,67.36
2022-09-14T18:56:44.698Z,67.75
2022-09-14T18:59:14.356Z,67.84
2022-09-14T19:01:43.756Z,68.90
2022-09-14T19:04:13.114Z,69.28
2022-09-14T19:06:41.971Z,69.73
2022-09-14T19:09:11.463Z,70.09
2022-09-14T19:11:39.631Z,69.86
2022-09-14T19:14:10.770Z,69.79
2022-09-14T19:16:40.898Z,69.77
2022-09-14T19:19:10.968Z,69.64
2022-09-14T19:21:39.284Z,69.91
2022-09-14T19:24:11.869Z,69.81
2022-09-14T19:26:45.288Z,69.55
2022-09-14T19:29:15.941Z,69.24
2022-09-14T19:31:44.528Z,69.46
2022-09-14T19:34:12.857Z,68.98
2022-09-14T19:36:40.925Z,69.12
2022-09-14T19:39:09.924Z,69.29
2022-09-14T19:41:38.408Z,69.37
2022-09-14T19:44:07.761Z,69.55
2022-09-14T19:46:39.811Z,69.22
2022-09-14T19:49:17.062Z,69.09
2022-09-14T19:51:45.643Z,68.95
2022-09-14T19:54:14.117Z,68.80
2022-09-14T19:56:43.421Z,68.14
2022-09-14T19:59:11.797Z,67.70
2022-09-14T20:01:40.724Z,67.17
2022-09-14T20:04:10.885Z,67.26
2022-09-14T20:06:43.503Z,67.37
2022-09-14T20:09:13.301Z,67.44
2022-09-14T20:11:43.428Z,67.42
2022-09-14T20:14:16.720Z,67.00
2022-09-14T20:16:47.554Z,66.47
2022-09-14T20:19:18.888Z,66.68
2022-09-14T20:21:49.171Z,66.49
2022-09-14T20:24:20.383Z,66.50
2022-09-14T20:26:50.185Z,66.11
2022-09-14T20:29:20.445Z,66.25
2022-09-14T20:31:48.475Z,66.04
2022-09-14T20:34:20.511Z,66.14
2022-09-14T20:36:50.433Z,66.44
2022-09-14T20:39:19.965Z,66.52
2022-09-14T20:41:48.351Z,66.86
2022-09-14T20:44:17.169Z,66.79
2022-09-14T20:46:45.449Z,66.71
2022-09-14T20:49:17.116Z,67.04
2022-09-14T20:51:45.239Z,67.40
2022-09-14T20:54:16.249Z,67.26
2022-09-14T20:56:46.378Z,67.19
2022-09-14T20:59:16.728Z,66.81
2022-09-14T21:01:47.127Z,66.87
2022-09-14T21:04:18.195Z,66.95
2022-09-14T21:06:49.231Z,67.09
2022-09-14T21:09:18.516Z,67.10
2022-09-14T21:11:47.323Z,67.25
2022-09-14T21:14:18.100Z,67.53
2022-09-14T21:16:48.809Z,67.06
2022-09-14T21:19:21.423Z,66.72
2022-09-14T21:21:50.236Z,66.44
2022-09-14T21:24:20.114Z,66.50
2022-09-14T21:26:48.148Z,66.83
2022-09-14T21:29:20.929Z,67.58
2022-09-14T21:31:49.743Z,67.84
2022-09-14T21:34:18.246Z,67.90
2022-09-14T21:36:49.260Z,67.74
2022-09-14T21:39:21.605Z,67.37
2022-09-14T21:41:55.767Z,67.26
2022-09-14T21:44:33.622Z,67.49
2022-09-14T21:47:02.412Z,67.50
2022-09-14T21:49:30.696Z,67.40
2022-09-14T21:51:58.783Z,67.77
2022-09-14T21:54:27.248Z,67.95
2022-09-14T21:56:55.620Z,68.12
2022-09-14T21:59:24.041Z,67.18
2022-09-14T22:01:52.589Z,67.14
2022-09-14T22:04:23.405Z,67.99
2022-09-14T22:06:53.400Z,68.55
2022-09-14T22:09:24.508Z,68.91
2022-09-14T22:11:53.172Z,68.78
2022-09-14T22:14:24.630Z,68.88
2022-09-14T22:16:54.024Z,69.18
2022-09-14T22:19:28.962Z,69.18
2022-09-14T22:21:58.054Z,69.53
2022-09-14T22:24:36.368Z,70.01
2022-09-14T22:27:10.890Z,70.17
2022-09-14T22:29:41.217Z,69.69
2022-09-14T22:32:12.147Z,69.54
2022-09-14T22:34:49.308Z,69.70
2022-09-14T22:37:17.727Z,70.47
2022-09-14T22:40:04.171Z,70.49
2022-09-14T22:42:32.701Z,69.56
2022-09-14T22:45:01.490Z,70.23
2022-09-14T22:47:29.665Z,70.82
2022-09-14T22:49:57.735Z,70.88
2022-09-14T22:52:25.910Z,70.96
2022-09-14T22:54:53.982Z,71.17
2022-09-14T22:57:24.106Z,71.38
2022-09-14T22:59:52.068Z,71.57
2022-09-14T23:02:20.176Z,71.70
2022-09-14T23:04:48.835Z,72.23
2022-09-14T23:07:16.897Z,72.36
2022-09-14T23:09:44.867Z,72.20
2022-09-14T23:12:12.938Z,72.23
2022-09-14T23:14:41.111Z,72.31
2022-09-14T23:17:09.213Z,72.15
2022-09-14T23:19:37.564Z,72.22
2022-09-14T23:22:05.551Z,72.08
2022-09-14T23:24:33.711Z,71.95
2022-09-14T23:27:01.778Z,72.11
2022-09-14T23:29:29.851Z,71.91
2022-09-14T23:31:58.029Z,71.85
2022-09-14T23:34:26.214Z,71.92
2022-09-14T23:36:54.377Z,71.80
2022-09-14T23:39:22.755Z,71.55
2022-09-14T23:41:50.932Z,71.46
2022-09-14T23:44:19.207Z,71.24
2022-09-14T23:46:47.278Z,71.29
2022-09-14T23:49:15.675Z,71.37
2022-09-14T23:51:44.599Z,71.63
2022-09-14T23:54:12.927Z,71.66
2022-09-14T23:56:41.206Z,71.72
2022-09-14T23:59:12.446Z,71.61
